createdAt,value
2023-03-05T00:02:06.627Z,55.35
2023-03-05T00:04:35.219Z,55.39
2023-03-05T00:07:05.621Z,54.94
2023-03-05T00:09:35.989Z,53.29
2023-03-05T00:12:06.386Z,52.78
2023-03-05T00:14:36.500Z,52.49
2023-03-05T00:17:05.278Z,52.80
2023-03-05T00:19:33.927Z,52.73
2023-03-05T00:22:02.781Z,52.40
2023-03-05T00:24:33.423Z,52.04
2023-03-05T00:27:02.126Z,52.58
2023-03-05T00:29:31.824Z,52.98
2023-03-05T00:32:00.707Z,52.61
2023-03-05T00:34:31.849Z,52.59
2023-03-05T00:37:01.535Z,52.81
2023-03-05T00:39:31.751Z,53.04
2023-03-05T00:42:00.464Z,52.81
2023-03-05T00:44:30.142Z,52.88
2023-03-05T00:46:59.191Z,52.95
2023-03-05T00:49:29.568Z,53.32
2023-03-05T00:51:58.327Z,53.71
2023-03-05T00:54:27.121Z,53.42
2023-03-05T00:56:56.702Z,53.55
2023-03-05T00:59:28.269Z,53.68
2023-03-05T01:01:57.245Z,53.70
2023-03-05T01:04:28.905Z,53.41
2023-03-05T01:06:59.250Z,53.87
2023-03-05T01:09:28.809Z,54.16
2023-03-05T01:11:57.693Z,54.06
2023-03-05T01:14:28.569Z,54.14
2023-03-05T01:16:58.272Z,53.93
2023-03-05T01:19:28.218Z,54.07
2023-03-05T01:21:56.974Z,54.11
2023-03-05T01:24:27.364Z,54.32
2023-03-05T01:26:56.323Z,53.82
2023-03-05T01:29:24.836Z,53.74
2023-03-05T01:31:53.766Z,53.84
2023-03-05T01:34:22.687Z,54.03
2023-03-05T01:36:52.862Z,54.15
2023-03-05T01:39:21.816Z,54.14
2023-03-05T01:41:50.305Z,54.07
2023-03-05T01:44:26.442Z,54.19
2023-03-05T01:46:55.900Z,54.44
2023-03-05T01:49:31.685Z,54.40
2023-03-05T01:52:16.515Z,54.56
2023-03-05T01:54:54.919Z,54.76
2023-03-05T01:57:28.617Z,54.99
2023-03-05T02:00:09.895Z,55.18
2023-03-05T02:02:44.699Z,55.21
2023-03-05T02:05:26.810Z,55.24
2023-03-05T02:08:00.379Z,55.14
2023-03-05T02:10:36.555Z,55.36
2023-03-05T02:13:16.622Z,55.17
2023-03-05T02:15:47.015Z,55.45
2023-03-05T02:18:17.279Z,55.67
2023-03-05T02:20:56.674Z,55.79
2023-03-05T02:23:28.611Z,55.87
2023-03-05T02:25:58.972Z,56.10
2023-03-05T02:28:41.977Z,56.16
2023-03-05T02:31:13.216Z,56.44
2023-03-05T02:33:43.100Z,56.76
2023-03-05T02:36:13.920Z,56.68
2023-03-05T02:38:43.620Z,56.91
2023-03-05T02:41:12.696Z,56.81
2023-03-05T02:43:42.454Z,56.84
2023-03-05T02:46:12.630Z,56.87
2023-03-05T02:48:42.944Z,57.03
2023-03-05T02:51:13.549Z,56.95
2023-03-05T02:53:45.628Z,57.02
2023-03-05T02:56:14.448Z,56.98
2023-03-05T02:58:44.232Z,57.19
2023-03-05T03:01:13.900Z,57.44
2023-03-05T03:03:43.672Z,57.55
2023-03-05T03:06:12.517Z,57.75
2023-03-05T03:08:42.547Z,57.68
2023-03-05T03:11:13.326Z,57.96
2023-03-05T03:13:41.933Z,58.23
2023-03-05T03:16:13.946Z,58.18
2023-03-05T03:18:44.342Z,58.23
2023-03-05T03:21:20.583Z,58.31
2023-03-05T03:23:49.581Z,58.34
2023-03-05T03:26:19.019Z,58.41
2023-03-05T03:28:49.953Z,58.83
2023-03-05T03:31:19.170Z,59.05
2023-03-05T03:33:48.247Z,59.29
2023-03-05T03:36:17.243Z,59.06
2023-03-05T03:38:47.070Z,59.03
2023-03-05T03:41:16.869Z,59.05
2023-03-05T03:43:45.751Z,59.00
2023-03-05T03:46:16.249Z,58.98
2023-03-05T03:48:45.453Z,59.08
2023-03-05T03:51:14.113Z,59.42
2023-03-05T03:53:42.827Z,59.35
2023-03-05T03:56:13.098Z,59.23
2023-03-05T03:58:43.752Z,59.26
2023-03-05T04:01:13.144Z,59.51
2023-03-05T04:03:41.776Z,59.60
2023-03-05T04:06:12.485Z,59.70
2023-03-05T04:08:42.874Z,59.87
2023-03-05T04:11:13.540Z,59.77
2023-03-05T04:13:42.458Z,60.01
2023-03-05T04:16:11.343Z,60.22
2023-03-05T04:18:42.043Z,60.38
2023-03-05T04:21:11.009Z,60.20
2023-03-05T04:23:41.509Z,60.05
2023-03-05T04:26:10.717Z,59.99
2023-03-05T04:28:40.047Z,60.08
2023-03-05T04:31:08.831Z,60.26
2023-03-05T04:33:39.937Z,60.29
2023-03-05T04:36:09.827Z,60.27
2023-03-05T04:38:41.466Z,60.53
2023-03-05T04:41:10.663Z,60.56
2023-03-05T04:43:39.441Z,60.10
2023-03-05T04:46:08.829Z,60.16
2023-03-05T04:48:37.571Z,60.41
2023-03-05T04:51:06.363Z,60.43
2023-03-05T04:53:36.069Z,60.42
2023-03-05T04:56:07.859Z,60.10
2023-03-05T04:58:37.729Z,60.12
2023-03-05T05:01:06.916Z,59.69
2023-03-05T05:03:37.806Z,59.74
2023-03-05T05:06:07.379Z,59.54
2023-03-05T05:08:37.990Z,59.71
2023-03-05T05:11:08.436Z,59.60
2023-03-05T05:13:38.643Z,59.56
2023-03-05T05:16:09.413Z,59.91
2023-03-05T05:18:38.850Z,59.70
2023-03-05T05:21:09.614Z,59.51
2023-03-05T05:23:39.137Z,59.27
2023-03-05T05:26:09.570Z,59.30
2023-03-05T05:28:38.680Z,59.38
2023-03-05T05:31:11.223Z,59.43
2023-03-05T05:33:41.625Z,59.60
2023-03-05T05:36:14.058Z,59.47
2023-03-05T05:38:42.826Z,59.35
2023-03-05T05:41:13.769Z,59.58
2023-03-05T05:43:42.424Z,59.36
2023-03-05T05:46:17.340Z,58.64
2023-03-05T05:48:46.500Z,59.21
2023-03-05T05:51:21.526Z,59.43
2023-03-05T05:53:51.539Z,59.62
2023-03-05T05:56:21.915Z,59.56
2023-03-05T05:58:52.304Z,59.49
2023-03-05T06:01:29.295Z,59.49
2023-03-05T06:03:58.691Z,59.31
2023-03-05T06:06:28.738Z,59.09
2023-03-05T06:08:58.530Z,59.21
2023-03-05T06:11:27.281Z,59.45
2023-03-05T06:13:55.968Z,59.51
2023-03-05T06:16:26.450Z,59.46
2023-03-05T06:18:55.951Z,59.25
2023-03-05T06:21:24.708Z,58.73
2023-03-05T06:23:54.570Z,58.45
2023-03-05T06:26:25.564Z,58.63
2023-03-05T06:28:55.745Z,58.58
2023-03-05T06:31:26.199Z,58.36
2023-03-05T06:33:57.763Z,58.65
2023-03-05T06:36:27.140Z,58.74
2023-03-05T06:38:55.985Z,58.63
2023-03-05T06:41:28.666Z,58.24
2023-03-05T06:44:02.143Z,58.20
2023-03-05T06:46:35.389Z,58.17
2023-03-05T06:49:05.014Z,58.10
2023-03-05T06:51:38.468Z,58.34
2023-03-05T06:54:10.746Z,58.22
2023-03-05T06:56:43.747Z,58.24
2023-03-05T06:59:14.194Z,58.26
2023-03-05T07:01:45.151Z,58.13
2023-03-05T07:04:14.853Z,58.03
2023-03-05T07:06:43.772Z,57.94
2023-03-05T07:09:15.465Z,58.04
2023-03-05T07:11:44.270Z,58.15
2023-03-05T07:14:13.542Z,58.31
2023-03-05T07:16:43.788Z,58.39
2023-03-05T07:19:14.099Z,58.35
2023-03-05T07:21:43.451Z,58.04
2023-03-05T07:24:14.057Z,57.86
2023-03-05T07:26:43.398Z,57.74
2023-03-05T07:29:12.663Z,57.83
2023-03-05T07:31:43.213Z,57.65
2023-03-05T07:34:13.319Z,57.46
2023-03-05T07:36:43.972Z,57.61
2023-03-05T07:39:13.967Z,57.47
2023-03-05T07:41:42.902Z,56.83
2023-03-05T07:44:11.581Z,56.53
2023-03-05T07:46:40.648Z,56.38
2023-03-05T07:49:09.548Z,56.00
2023-03-05T07:51:40.430Z,55.52
2023-03-05T07:54:11.016Z,55.26
2023-03-05T07:56:40.127Z,55.45
2023-03-05T07:59:11.534Z,55.41
2023-03-05T08:01:40.635Z,55.35
2023-03-05T08:04:11.111Z,55.01
2023-03-05T08:06:42.952Z,54.76
2023-03-05T08:09:11.643Z,54.50
2023-03-05T08:11:42.217Z,53.69
2023-03-05T08:14:11.672Z,53.88
2023-03-05T08:16:40.358Z,52.46
2023-03-05T08:19:10.516Z,52.24
2023-03-05T08:21:42.506Z,52.41
2023-03-05T08:24:11.746Z,52.36
2023-03-05T08:26:42.154Z,52.54
2023-03-05T08:29:12.893Z,52.75
2023-03-05T08:31:46.169Z,51.57
2023-03-05T08:34:15.114Z,51.03
2023-03-05T08:36:44.019Z,49.75
2023-03-05T08:39:12.771Z,48.58
2023-03-05T08:41:43.566Z,48.76
2023-03-05T08:44:13.791Z,48.01
2023-03-05T08:46:44.351Z,46.83
2023-03-05T08:49:13.321Z,47.29
2023-03-05T08:51:42.587Z,47.15
2023-03-05T08:54:11.801Z,46.45
2023-03-05T08:56:40.412Z,46.38
2023-03-05T08:59:12.590Z,46.53
2023-03-05T09:01:40.968Z,47.00
2023-03-05T09:04:10.029Z,47.55
2023-03-05T09:06:41.527Z,46.93
2023-03-05T09:09:13.872Z,47.44
2023-03-05T09:11:44.335Z,57.41
2023-03-05T09:14:13.841Z,49.55
2023-03-05T09:16:44.111Z,48.16
2023-03-05T09:19:14.777Z,47.34
2023-03-05T09:21:43.842Z,47.66
2023-03-05T09:24:14.096Z,47.90
2023-03-05T09:26:44.107Z,48.42
2023-03-05T09:29:14.045Z,48.13
2023-03-05T09:31:44.122Z,47.73
2023-03-05T09:34:13.141Z,48.17
2023-03-05T09:36:42.271Z,48.61
2023-03-05T09:39:10.904Z,48.46
2023-03-05T09:42:03.332Z,48.71
2023-03-05T09:45:10.973Z,48.79
2023-03-05T09:48:01.736Z,48.18
2023-03-05T09:50:47.232Z,48.51
2023-03-05T09:53:30.890Z,48.62
2023-03-05T09:56:02.622Z,48.52
2023-03-05T09:58:38.888Z,48.53
2023-03-05T10:01:13.850Z,48.26
2023-03-05T10:04:12.712Z,47.72
2023-03-05T10:07:10.897Z,48.17
2023-03-05T10:10:00.104Z,47.79
2023-03-05T10:12:46.752Z,47.19
2023-03-05T10:15:37.314Z,47.79
2023-03-05T10:18:44.193Z,47.90
2023-03-05T10:21:24.280Z,47.75
2023-03-05T10:24:11.168Z,46.97
2023-03-05T10:27:04.603Z,47.36
2023-03-05T10:29:47.258Z,47.83
2023-03-05T10:32:52.199Z,47.54
2023-03-05T10:35:43.379Z,47.74
2023-03-05T10:38:45.368Z,47.38
2023-03-05T10:41:38.420Z,47.47
2023-03-05T10:44:33.673Z,47.76
2023-03-05T10:47:02.309Z,47.64
2023-03-05T10:49:34.124Z,47.18
2023-03-05T10:52:18.432Z,47.64
2023-03-05T10:54:47.913Z,46.46
2023-03-05T10:57:21.147Z,46.52
2023-03-05T11:00:08.753Z,46.52
2023-03-05T11:02:47.949Z,46.81
2023-03-05T11:05:46.708Z,47.00
2023-03-05T11:08:34.024Z,47.10
2023-03-05T11:11:14.038Z,46.98
2023-03-05T11:14:00.387Z,46.83
2023-03-05T11:16:35.959Z,46.55
2023-03-05T11:19:32.257Z,46.77
2023-03-05T11:22:22.740Z,46.74
2023-03-05T11:25:16.131Z,46.47
2023-03-05T11:27:54.981Z,47.14
2023-03-05T11:30:35.955Z,46.17
2023-03-05T11:33:20.102Z,46.40
2023-03-05T11:35:52.149Z,46.59
2023-03-05T11:38:26.480Z,46.36
2023-03-05T11:40:56.467Z,45.21
2023-03-05T11:43:26.792Z,45.03
2023-03-05T11:46:05.163Z,45.50
2023-03-05T11:48:37.229Z,45.70
2023-03-05T11:51:32.909Z,45.04
2023-03-05T11:54:07.396Z,45.30
2023-03-05T11:56:39.052Z,45.58
2023-03-05T11:59:25.528Z,45.99
2023-03-05T12:01:56.758Z,46.05
2023-03-05T12:04:25.783Z,45.75
2023-03-05T12:07:03.748Z,45.51
2023-03-05T12:09:49.995Z,45.36
2023-03-05T12:12:56.258Z,45.37
2023-03-05T12:15:49.990Z,45.20
2023-03-05T12:18:35.466Z,44.35
2023-03-05T12:21:26.645Z,43.52
2023-03-05T12:24:04.790Z,43.83
2023-03-05T12:27:05.674Z,43.82
2023-03-05T12:29:47.753Z,44.26
2023-03-05T12:32:31.418Z,44.36
2023-03-05T12:35:06.231Z,48.59
2023-03-05T12:37:53.906Z,50.11
2023-03-05T12:40:30.411Z,44.49
2023-03-05T12:43:04.524Z,44.70
2023-03-05T12:45:41.393Z,44.21
2023-03-05T12:48:20.007Z,43.58
2023-03-05T12:50:51.458Z,44.86
2023-03-05T12:53:21.124Z,44.11
2023-03-05T12:55:56.051Z,44.15
2023-03-05T12:58:49.695Z,45.84
2023-03-05T13:01:38.945Z,44.99
2023-03-05T13:04:24.504Z,45.39
2023-03-05T13:07:06.006Z,45.01
2023-03-05T13:09:36.581Z,44.69
2023-03-05T13:12:10.986Z,43.73
2023-03-05T13:14:46.323Z,43.36
2023-03-05T13:17:44.090Z,44.04
2023-03-05T13:20:37.438Z,43.70
2023-03-05T13:23:24.699Z,43.43
2023-03-05T13:26:02.752Z,43.01
2023-03-05T13:28:32.741Z,42.61
2023-03-05T13:31:04.182Z,42.36
2023-03-05T13:33:35.753Z,42.91
2023-03-05T13:36:06.976Z,42.62
2023-03-05T13:38:40.580Z,43.05
2023-03-05T13:41:27.223Z,43.16
2023-03-05T13:44:01.340Z,43.60
2023-03-05T13:46:35.332Z,43.51
2023-03-05T13:49:33.015Z,43.57
2023-03-05T13:52:06.409Z,43.38
2023-03-05T13:54:35.173Z,42.54
2023-03-05T13:57:07.585Z,42.51
2023-03-05T13:59:39.189Z,43.01
2023-03-05T14:02:20.322Z,43.10
2023-03-05T14:04:50.490Z,42.99
2023-03-05T14:07:39.517Z,43.41
2023-03-05T14:10:34.521Z,43.24
2023-03-05T14:13:08.628Z,43.66
2023-03-05T14:15:40.355Z,42.75
2023-03-05T14:18:19.928Z,42.86
2023-03-05T14:21:12.607Z,43.05
2023-03-05T14:23:43.732Z,43.28
2023-03-05T14:26:28.765Z,43.47
2023-03-05T14:29:06.678Z,42.82
2023-03-05T14:32:02.931Z,43.66
2023-03-05T14:34:36.516Z,43.12
2023-03-05T14:37:09.112Z,43.30
2023-03-05T14:40:07.840Z,43.21
2023-03-05T14:42:59.628Z,42.96
2023-03-05T14:45:35.222Z,43.34
2023-03-05T14:48:07.336Z,43.70
2023-03-05T14:50:44.578Z,43.35
2023-03-05T14:53:16.913Z,43.22
2023-03-05T14:55:50.043Z,44.56
2023-03-05T14:58:21.818Z,44.37
2023-03-05T15:00:51.472Z,44.07
2023-03-05T15:03:23.131Z,43.44
2023-03-05T15:05:54.721Z,43.05
2023-03-05T15:08:26.538Z,43.37
2023-03-05T15:10:55.268Z,43.49
2023-03-05T15:13:26.172Z,43.59
2023-03-05T15:15:55.429Z,43.60
2023-03-05T15:18:26.032Z,43.67
2023-03-05T15:20:56.990Z,43.67
2023-03-05T15:23:28.138Z,43.80
2023-03-05T15:25:57.462Z,43.87
2023-03-05T15:28:26.971Z,44.03
2023-03-05T15:30:58.253Z,44.12
2023-03-05T15:33:27.702Z,44.05
2023-03-05T15:35:56.395Z,44.31
2023-03-05T15:38:25.533Z,44.30
2023-03-05T15:40:54.327Z,44.50
2023-03-05T15:43:23.402Z,44.62
2023-03-05T15:45:52.882Z,44.71
2023-03-05T15:48:23.304Z,44.82
2023-03-05T15:50:52.100Z,45.03
2023-03-05T15:53:22.432Z,45.17
2023-03-05T15:55:52.388Z,45.32
2023-03-05T15:58:21.785Z,45.47
2023-03-05T16:00:52.371Z,45.58
2023-03-05T16:03:22.863Z,45.59
2023-03-05T16:05:51.553Z,45.62
2023-03-05T16:08:21.078Z,45.90
2023-03-05T16:10:49.851Z,45.97
2023-03-05T16:13:23.307Z,46.05
2023-03-05T16:15:54.997Z,46.15
2023-03-05T16:18:25.164Z,46.14
2023-03-05T16:20:55.522Z,46.33
2023-03-05T16:23:25.012Z,46.40
2023-03-05T16:25:57.190Z,46.39
2023-03-05T16:28:27.202Z,46.52
2023-03-05T16:30:57.448Z,46.54
2023-03-05T16:33:27.706Z,46.50
2023-03-05T16:36:25.097Z,46.68
2023-03-05T16:38:58.655Z,46.79
2023-03-05T16:41:27.543Z,46.84
2023-03-05T16:43:56.722Z,46.89
2023-03-05T16:46:27.456Z,46.99
2023-03-05T16:48:56.181Z,46.91
2023-03-05T16:51:26.758Z,46.92
2023-03-05T16:53:56.043Z,46.80
2023-03-05T16:56:25.193Z,46.65
2023-03-05T16:58:55.614Z,46.78
2023-03-05T17:01:24.775Z,46.70
2023-03-05T17:03:59.773Z,46.64
2023-03-05T17:06:30.056Z,46.68
2023-03-05T17:09:01.228Z,46.59
2023-03-05T17:11:31.073Z,46.62
2023-03-05T17:14:03.076Z,46.76
2023-03-05T17:16:32.725Z,46.87
2023-03-05T17:19:01.425Z,46.84
2023-03-05T17:21:30.667Z,46.91
2023-03-05T17:24:00.159Z,46.89
2023-03-05T17:26:31.541Z,46.96
2023-03-05T17:29:01.444Z,47.07
2023-03-05T17:31:30.494Z,47.20
2023-03-05T17:34:00.333Z,47.23
2023-03-05T17:36:30.608Z,47.38
2023-03-05T17:38:59.686Z,47.52
2023-03-05T17:41:29.306Z,47.68
2023-03-05T17:43:59.746Z,47.68
2023-03-05T17:46:28.433Z,47.85
2023-03-05T17:48:58.839Z,48.04
2023-03-05T17:51:29.360Z,48.17
2023-03-05T17:53:59.978Z,48.25
2023-03-05T17:56:30.011Z,48.32
2023-03-05T17:58:59.009Z,48.43
2023-03-05T18:01:32.097Z,48.65
2023-03-05T18:04:01.401Z,48.74
2023-03-05T18:06:31.796Z,48.84
2023-03-05T18:09:00.695Z,48.99
2023-03-05T18:11:30.489Z,49.01
2023-03-05T18:14:00.800Z,49.13
2023-03-05T18:16:32.214Z,49.20
2023-03-05T18:19:01.122Z,49.30
2023-03-05T18:21:30.329Z,49.45
2023-03-05T18:23:59.755Z,49.66
2023-03-05T18:26:28.566Z,49.85
2023-03-05T18:28:58.151Z,50.02
2023-03-05T18:31:29.419Z,50.07
2023-03-05T18:33:58.930Z,50.09
2023-03-05T18:36:29.058Z,50.16
2023-03-05T18:38:58.744Z,50.19
2023-03-05T18:41:30.421Z,50.36
2023-03-05T18:44:01.491Z,50.49
2023-03-05T18:46:31.524Z,50.61
2023-03-05T18:49:01.060Z,50.61
2023-03-05T18:51:30.873Z,50.58
2023-03-05T18:54:03.404Z,50.68
2023-03-05T18:56:33.877Z,50.74
2023-03-05T18:59:03.088Z,50.84
2023-03-05T19:01:32.230Z,50.99
2023-03-05T19:04:00.949Z,51.15
2023-03-05T19:06:29.962Z,51.24
2023-03-05T19:09:17.849Z,51.30
2023-03-05T19:11:48.473Z,51.30
2023-03-05T19:14:18.445Z,51.34
2023-03-05T19:16:54.012Z,51.39
2023-03-05T19:19:24.931Z,51.59
2023-03-05T19:21:57.737Z,51.63
2023-03-05T19:24:28.900Z,51.73
2023-03-05T19:26:59.425Z,51.93
2023-03-05T19:29:31.009Z,52.07
2023-03-05T19:31:59.529Z,52.27
2023-03-05T19:34:30.036Z,52.37
2023-03-05T19:36:58.623Z,52.52
2023-03-05T19:39:27.326Z,52.69
2023-03-05T19:41:56.365Z,52.92
2023-03-05T19:44:25.490Z,53.14
2023-03-05T19:46:54.381Z,53.28
2023-03-05T19:49:25.103Z,53.40
2023-03-05T19:51:54.062Z,53.48
2023-03-05T19:54:22.813Z,53.49
2023-03-05T19:56:55.490Z,53.52
2023-03-05T19:59:24.814Z,53.65
2023-03-05T20:01:53.903Z,53.81
2023-03-05T20:04:23.371Z,53.87
2023-03-05T20:06:52.293Z,53.98
2023-03-05T20:09:25.236Z,54.06
2023-03-05T20:11:54.169Z,54.13
2023-03-05T20:14:23.392Z,54.21
2023-03-05T20:16:54.407Z,54.29
2023-03-05T20:19:23.567Z,54.37
2023-03-05T20:21:52.298Z,54.44
2023-03-05T20:24:24.188Z,54.54
2023-03-05T20:26:52.966Z,54.58
2023-03-05T20:29:23.433Z,54.61
2023-03-05T20:31:52.957Z,54.69
2023-03-05T20:34:22.332Z,54.74
2023-03-05T20:36:51.215Z,54.76
2023-03-05T20:39:21.038Z,54.82
2023-03-05T20:41:51.176Z,54.91
2023-03-05T20:44:22.195Z,54.94
2023-03-05T20:47:07.206Z,55.05
2023-03-05T20:49:41.808Z,55.09
2023-03-05T20:52:10.452Z,55.14
2023-03-05T20:54:39.428Z,55.13
2023-03-05T20:57:09.153Z,55.18
2023-03-05T20:59:39.452Z,55.26
2023-03-05T21:02:10.151Z,55.37
2023-03-05T21:04:39.977Z,55.52
2023-03-05T21:07:10.748Z,55.51
2023-03-05T21:09:39.479Z,55.52
2023-03-05T21:12:08.872Z,55.54
2023-03-05T21:14:38.145Z,55.63
2023-03-05T21:17:09.440Z,55.71
2023-03-05T21:19:39.732Z,55.76
2023-03-05T21:22:08.524Z,55.77
2023-03-05T21:24:44.500Z,55.87
2023-03-05T21:27:25.311Z,55.98
2023-03-05T21:33:51.509Z,56.00
2023-03-05T21:36:21.988Z,56.02
2023-03-05T21:38:51.260Z,56.13
2023-03-05T21:41:22.863Z,56.22
2023-03-05T21:43:51.819Z,56.15
2023-03-05T21:46:20.618Z,56.20
2023-03-05T21:48:52.980Z,56.27
2023-03-05T21:51:38.959Z,56.34
2023-03-05T21:54:18.645Z,56.43
2023-03-05T21:56:47.847Z,56.54
2023-03-05T21:59:19.382Z,56.62
2023-03-05T22:01:48.418Z,56.80
2023-03-05T22:04:17.368Z,56.88
2023-03-05T22:06:46.178Z,56.91
2023-03-05T22:09:15.592Z,56.96
2023-03-05T22:11:44.733Z,56.94
2023-03-05T22:14:16.150Z,56.89
2023-03-05T22:16:44.912Z,56.87
2023-03-05T22:19:14.945Z,56.96
2023-03-05T22:21:43.792Z,57.06
2023-03-05T22:24:14.091Z,57.18
2023-03-05T22:26:43.397Z,57.24
2023-03-05T22:29:12.882Z,57.36
2023-03-05T22:31:41.654Z,57.45
2023-03-05T22:34:10.946Z,57.57
2023-03-05T22:36:40.753Z,57.75
2023-03-05T22:39:09.518Z,57.90
2023-03-05T22:41:41.490Z,58.06
2023-03-05T22:44:11.444Z,58.15
2023-03-05T22:46:40.187Z,58.28
2023-03-05T22:49:10.634Z,58.36
2023-03-05T22:51:39.362Z,58.47
2023-03-05T22:54:08.761Z,58.57
2023-03-05T22:56:37.375Z,58.64
2023-03-05T22:59:08.062Z,58.77
2023-03-05T23:01:36.705Z,58.83
2023-03-05T23:04:13.924Z,58.93
2023-03-05T23:06:47.730Z,59.03
2023-03-05T23:09:16.481Z,59.14
2023-03-05T23:11:46.215Z,59.16
2023-03-05T23:14:14.928Z,59.18
2023-03-05T23:16:45.509Z,59.19
2023-03-05T23:19:15.216Z,59.15
2023-03-05T23:21:43.962Z,59.14
2023-03-05T23:24:14.197Z,59.12
2023-03-05T23:26:43.200Z,59.07
2023-03-05T23:29:34.599Z,59.09
2023-03-05T23:32:04.337Z,59.08
2023-03-05T23:34:34.259Z,58.98
2023-03-05T23:37:24.736Z,58.89
2023-03-05T23:39:53.396Z,58.75
2023-03-05T23:42:23.935Z,58.64
2023-03-05T23:44:55.393Z,58.56
2023-03-05T23:47:24.360Z,58.46
2023-03-05T23:49:53.715Z,58.48
2023-03-05T23:52:22.472Z,58.33
2023-03-05T23:54:51.098Z,58.23
2023-03-05T23:57:19.896Z,58.22
2023-03-05T23:59:48.731Z,58.18
